sensor_id;sensor_type;location;lat;lon;timestamp;pressure;altitude;pressure_sealevel;temperature;humidity
51468;BME280;37545;45.302;-122.946;2023-08-21T00:01:29;100092.56;;;34.54;17.63
51468;BME280;37545;45.302;-122.946;2023-08-21T00:03:58;100091.72;;;34.54;17.95
51468;BME280;37545;45.302;-122.946;2023-08-21T00:06:26;100090.97;;;34.52;18.27
51468;BME280;37545;45.302;-122.946;2023-08-21T00:08:57;100094.78;;;34.49;18.26
51468;BME280;37545;45.302;-122.946;2023-08-21T00:11:25;100097.09;;;34.42;18.18
51468;BME280;37545;45.302;-122.946;2023-08-21T00:13:54;100100.31;;;34.36;18.25
51468;BME280;37545;45.302;-122.946;2023-08-21T00:16:22;100091.75;;;34.31;18.96
51468;BME280;37545;45.302;-122.946;2023-08-21T00:19:00;100095.69;;;34.27;18.50
51468;BME280;37545;45.302;-122.946;2023-08-21T00:21:28;100092.50;;;34.22;19.14
51468;BME280;37545;45.302;-122.946;2023-08-21T00:24:08;100092.75;;;34.19;19.88
51468;BME280;37545;45.302;-122.946;2023-08-21T00:26:49;100091.41;;;34.13;18.96
51468;BME280;37545;45.302;-122.946;2023-08-21T00:29:18;100082.97;;;34.07;18.66
51468;BME280;37545;45.302;-122.946;2023-08-21T00:31:47;100092.22;;;34.03;19.16
51468;BME280;37545;45.302;-122.946;2023-08-21T00:34:15;100090.03;;;33.96;19.07
51468;BME280;37545;45.302;-122.946;2023-08-21T00:36:44;100085.66;;;33.95;19.00
51468;BME280;37545;45.302;-122.946;2023-08-21T00:39:14;100089.53;;;33.91;19.18
51468;BME280;37545;45.302;-122.946;2023-08-21T00:41:43;100090.75;;;33.87;19.13
51468;BME280;37545;45.302;-122.946;2023-08-21T00:44:11;100097.09;;;33.86;19.33
51468;BME280;37545;45.302;-122.946;2023-08-21T00:46:43;100098.44;;;33.80;19.48
51468;BME280;37545;45.302;-122.946;2023-08-21T00:49:11;100100.00;;;33.72;19.85
51468;BME280;37545;45.302;-122.946;2023-08-21T00:51:40;100106.97;;;33.63;19.51
51468;BME280;37545;45.302;-122.946;2023-08-21T00:54:09;100099.25;;;33.58;20.17
51468;BME280;37545;45.302;-122.946;2023-08-21T00:56:43;100102.97;;;33.45;19.23
51468;BME280;37545;45.302;-122.946;2023-08-21T00:59:13;100096.59;;;33.34;19.42
51468;BME280;37545;45.302;-122.946;2023-08-21T01:01:42;100098.66;;;33.31;19.83
51468;BME280;37545;45.302;-122.946;2023-08-21T01:04:11;100098.38;;;33.23;19.80
51468;BME280;37545;45.302;-122.946;2023-08-21T01:06:39;100095.66;;;33.11;19.13
51468;BME280;37545;45.302;-122.946;2023-08-21T01:09:15;100096.31;;;33.02;19.97
51468;BME280;37545;45.302;-122.946;2023-08-21T01:11:53;100100.44;;;32.95;20.78
51468;BME280;37545;45.302;-122.946;2023-08-21T01:14:29;100104.75;;;32.85;21.72
51468;BME280;37545;45.302;-122.946;2023-08-21T01:17:00;100100.94;;;32.76;21.08
51468;BME280;37545;45.302;-122.946;2023-08-21T01:19:36;100105.16;;;32.67;20.93
51468;BME280;37545;45.302;-122.946;2023-08-21T01:22:06;100093.06;;;32.62;21.01
51468;BME280;37545;45.302;-122.946;2023-08-21T01:24:36;100092.88;;;32.52;21.42
51468;BME280;37545;45.302;-122.946;2023-08-21T01:27:05;100097.03;;;32.43;21.83
51468;BME280;37545;45.302;-122.946;2023-08-21T01:29:34;100094.19;;;32.33;21.72
51468;BME280;37545;45.302;-122.946;2023-08-21T01:32:09;100086.91;;;32.23;21.82
51468;BME280;37545;45.302;-122.946;2023-08-21T01:34:41;100091.00;;;32.16;21.17
51468;BME280;37545;45.302;-122.946;2023-08-21T01:37:11;100089.94;;;32.05;22.59
51468;BME280;37545;45.302;-122.946;2023-08-21T01:39:41;100089.53;;;31.99;22.67
51468;BME280;37545;45.302;-122.946;2023-08-21T01:42:10;100090.16;;;31.89;22.18
51468;BME280;37545;45.302;-122.946;2023-08-21T01:44:39;100083.94;;;31.76;24.47
51468;BME280;37545;45.302;-122.946;2023-08-21T01:47:08;100095.38;;;31.65;24.40
51468;BME280;37545;45.302;-122.946;2023-08-21T01:49:36;100086.19;;;31.57;21.74
51468;BME280;37545;45.302;-122.946;2023-08-21T01:52:05;100087.66;;;31.48;21.70
51468;BME280;37545;45.302;-122.946;2023-08-21T01:54:36;100089.34;;;31.36;22.82
51468;BME280;37545;45.302;-122.946;2023-08-21T01:57:07;100086.31;;;31.28;22.99
51468;BME280;37545;45.302;-122.946;2023-08-21T01:59:35;100082.66;;;31.16;21.55
51468;BME280;37545;45.302;-122.946;2023-08-21T02:02:04;100080.50;;;31.08;22.73
51468;BME280;37545;45.302;-122.946;2023-08-21T02:04:41;100088.16;;;31.00;22.23
51468;BME280;37545;45.302;-122.946;2023-08-21T02:07:09;100090.28;;;30.95;23.25
51468;BME280;37545;45.302;-122.946;2023-08-21T02:09:38;100096.03;;;30.89;23.60
51468;BME280;37545;45.302;-122.946;2023-08-21T02:12:08;100099.84;;;30.85;23.36
51468;BME280;37545;45.302;-122.946;2023-08-21T02:14:37;100102.69;;;30.82;24.31
51468;BME280;37545;45.302;-122.946;2023-08-21T02:17:06;100096.81;;;30.77;24.85
51468;BME280;37545;45.302;-122.946;2023-08-21T02:19:34;100107.69;;;30.74;25.05
51468;BME280;37545;45.302;-122.946;2023-08-21T02:22:03;100103.69;;;30.66;24.93
51468;BME280;37545;45.302;-122.946;2023-08-21T02:24:31;100103.53;;;30.55;25.20
51468;BME280;37545;45.302;-122.946;2023-08-21T02:27:02;100103.25;;;30.45;26.04
51468;BME280;37545;45.302;-122.946;2023-08-21T02:29:33;100102.22;;;30.34;26.22
51468;BME280;37545;45.302;-122.946;2023-08-21T02:32:01;100103.94;;;30.20;26.31
51468;BME280;37545;45.302;-122.946;2023-08-21T02:34:30;100104.78;;;30.06;26.03
51468;BME280;37545;45.302;-122.946;2023-08-21T02:36:58;100106.31;;;29.96;26.56
51468;BME280;37545;45.302;-122.946;2023-08-21T02:39:29;100113.84;;;29.90;26.02
51468;BME280;37545;45.302;-122.946;2023-08-21T02:41:58;100116.09;;;29.81;26.19
51468;BME280;37545;45.302;-122.946;2023-08-21T02:44:26;100123.63;;;29.75;26.55
51468;BME280;37545;45.302;-122.946;2023-08-21T02:46:57;100123.91;;;29.70;27.10
51468;BME280;37545;45.302;-122.946;2023-08-21T02:49:25;100124.06;;;29.67;26.99
51468;BME280;37545;45.302;-122.946;2023-08-21T02:51:54;100127.84;;;29.63;28.07
51468;BME280;37545;45.302;-122.946;2023-08-21T02:54:23;100136.97;;;29.59;27.36
51468;BME280;37545;45.302;-122.946;2023-08-21T02:56:51;100134.00;;;29.49;27.18
51468;BME280;37545;45.302;-122.946;2023-08-21T02:59:20;100141.69;;;29.39;26.99
51468;BME280;37545;45.302;-122.946;2023-08-21T03:01:48;100133.47;;;29.28;27.47
51468;BME280;37545;45.302;-122.946;2023-08-21T03:04:27;100151.09;;;29.15;28.39
51468;BME280;37545;45.302;-122.946;2023-08-21T03:06:56;100147.72;;;28.95;28.33
51468;BME280;37545;45.302;-122.946;2023-08-21T03:09:24;100150.25;;;28.82;28.05
51468;BME280;37545;45.302;-122.946;2023-08-21T03:11:57;100134.19;;;28.68;27.69
51468;BME280;37545;45.302;-122.946;2023-08-21T03:14:27;100144.13;;;28.65;27.64
51468;BME280;37545;45.302;-122.946;2023-08-21T03:16:55;100140.88;;;28.59;27.63
51468;BME280;37545;45.302;-122.946;2023-08-21T03:19:24;100154.44;;;28.55;27.29
51468;BME280;37545;45.302;-122.946;2023-08-21T03:21:54;100149.44;;;28.49;27.24
51468;BME280;37545;45.302;-122.946;2023-08-21T03:24:24;100150.63;;;28.43;29.59
51468;BME280;37545;45.302;-122.946;2023-08-21T03:26:53;100155.41;;;28.36;27.83
51468;BME280;37545;45.302;-122.946;2023-08-21T03:29:21;100151.44;;;28.28;26.61
51468;BME280;37545;45.302;-122.946;2023-08-21T03:31:52;100152.59;;;28.22;26.62
51468;BME280;37545;45.302;-122.946;2023-08-21T03:34:20;100150.19;;;28.17;26.36
51468;BME280;37545;45.302;-122.946;2023-08-21T03:36:49;100158.53;;;28.11;25.96
51468;BME280;37545;45.302;-122.946;2023-08-21T03:39:19;100162.28;;;28.07;25.88
51468;BME280;37545;45.302;-122.946;2023-08-21T03:41:47;100166.13;;;28.02;25.54
51468;BME280;37545;45.302;-122.946;2023-08-21T03:44:16;100166.44;;;27.95;25.56
51468;BME280;37545;45.302;-122.946;2023-08-21T03:46:47;100171.22;;;27.89;25.33
51468;BME280;37545;45.302;-122.946;2023-08-21T03:49:16;100169.78;;;27.82;25.49
51468;BME280;37545;45.302;-122.946;2023-08-21T03:51:44;100170.16;;;27.74;25.09
51468;BME280;37545;45.302;-122.946;2023-08-21T03:54:13;100182.75;;;27.70;24.99
51468;BME280;37545;45.302;-122.946;2023-08-21T03:56:43;100187.53;;;27.64;25.46
51468;BME280;37545;45.302;-122.946;2023-08-21T03:59:14;100186.28;;;27.53;25.99
51468;BME280;37545;45.302;-122.946;2023-08-21T04:01:42;100191.81;;;27.49;25.47
51468;BME280;37545;45.302;-122.946;2023-08-21T04:04:12;100193.91;;;27.42;27.24
51468;BME280;37545;45.302;-122.946;2023-08-21T04:06:40;100198.81;;;27.32;27.00
51468;BME280;37545;45.302;-122.946;2023-08-21T04:09:09;100213.47;;;27.22;26.59
51468;BME280;37545;45.302;-122.946;2023-08-21T04:11:38;100202.25;;;27.15;26.16
51468;BME280;37545;45.302;-122.946;2023-08-21T04:14:08;100208.75;;;27.10;25.83
51468;BME280;37545;45.302;-122.946;2023-08-21T04:16:36;100221.34;;;27.05;25.17
51468;BME280;37545;45.302;-122.946;2023-08-21T04:19:05;100212.75;;;27.00;25.41
51468;BME280;37545;45.302;-122.946;2023-08-21T04:21:36;100214.88;;;26.91;24.76
51468;BME280;37545;45.302;-122.946;2023-08-21T04:24:05;100223.06;;;26.87;24.77
51468;BME280;37545;45.302;-122.946;2023-08-21T04:26:34;100213.88;;;26.75;24.79
51468;BME280;37545;45.302;-122.946;2023-08-21T04:29:02;100221.22;;;26.70;25.30
51468;BME280;37545;45.302;-122.946;2023-08-21T04:31:35;100214.47;;;26.63;24.44
51468;BME280;37545;45.302;-122.946;2023-08-21T04:34:04;100230.75;;;26.55;24.09
51468;BME280;37545;45.302;-122.946;2023-08-21T04:36:33;100236.22;;;26.50;25.02
51468;BME280;37545;45.302;-122.946;2023-08-21T04:39:01;100218.06;;;26.41;24.29
51468;BME280;37545;45.302;-122.946;2023-08-21T04:41:30;100228.94;;;26.35;24.42
51468;BME280;37545;45.302;-122.946;2023-08-21T04:44:00;100232.66;;;26.31;24.37
51468;BME280;37545;45.302;-122.946;2023-08-21T04:46:29;100214.50;;;26.22;23.98
51468;BME280;37545;45.302;-122.946;2023-08-21T04:48:59;100221.00;;;26.15;23.83
51468;BME280;37545;45.302;-122.946;2023-08-21T04:51:28;100223.78;;;26.11;24.50
51468;BME280;37545;45.302;-122.946;2023-08-21T04:53:57;100219.47;;;26.09;24.08
51468;BME280;37545;45.302;-122.946;2023-08-21T04:56:29;100225.75;;;26.06;24.20
51468;BME280;37545;45.302;-122.946;2023-08-21T04:58:57;100226.09;;;25.99;23.94
51468;BME280;37545;45.302;-122.946;2023-08-21T05:01:29;100222.19;;;25.87;24.22
51468;BME280;37545;45.302;-122.946;2023-08-21T05:03:59;100224.34;;;25.77;24.09
51468;BME280;37545;45.302;-122.946;2023-08-21T05:06:31;100216.59;;;25.73;24.22
51468;BME280;37545;45.302;-122.946;2023-08-21T05:08:59;100225.44;;;25.71;24.23
51468;BME280;37545;45.302;-122.946;2023-08-21T05:11:28;100231.69;;;25.70;23.99
51468;BME280;37545;45.302;-122.946;2023-08-21T05:13:57;100224.63;;;25.69;24.29
51468;BME280;37545;45.302;-122.946;2023-08-21T05:16:30;100221.19;;;25.67;23.78
51468;BME280;37545;45.302;-122.946;2023-08-21T05:19:00;100226.75;;;25.61;24.30
51468;BME280;37545;45.302;-122.946;2023-08-21T05:21:29;100226.19;;;25.53;24.50
51468;BME280;37545;45.302;-122.946;2023-08-21T05:23:57;100223.03;;;25.45;24.20
51468;BME280;37545;45.302;-122.946;2023-08-21T05:26:26;100218.88;;;25.38;24.29
51468;BME280;37545;45.302;-122.946;2023-08-21T05:28:59;100217.47;;;25.29;25.07
51468;BME280;37545;45.302;-122.946;2023-08-21T05:31:27;100222.97;;;25.24;24.73
51468;BME280;37545;45.302;-122.946;2023-08-21T05:33:56;100209.81;;;25.21;25.38
51468;BME280;37545;45.302;-122.946;2023-08-21T05:36:27;100216.22;;;25.16;25.52
51468;BME280;37545;45.302;-122.946;2023-08-21T05:38:56;100211.94;;;25.12;25.71
51468;BME280;37545;45.302;-122.946;2023-08-21T05:41:25;100217.56;;;25.04;25.88
51468;BME280;37545;45.302;-122.946;2023-08-21T05:43:53;100221.09;;;25.03;25.82
51468;BME280;37545;45.302;-122.946;2023-08-21T05:46:22;100225.53;;;25.02;25.62
51468;BME280;37545;45.302;-122.946;2023-08-21T05:48:50;100224.91;;;24.96;25.67
51468;BME280;37545;45.302;-122.946;2023-08-21T05:51:19;100217.38;;;24.85;25.58
51468;BME280;37545;45.302;-122.946;2023-08-21T05:53:49;100223.72;;;24.81;26.33
51468;BME280;37545;45.302;-122.946;2023-08-21T05:56:18;100205.66;;;24.69;26.22
51468;BME280;37545;45.302;-122.946;2023-08-21T05:58:46;100212.72;;;24.68;27.22
51468;BME280;37545;45.302;-122.946;2023-08-21T06:01:15;100215.50;;;24.65;26.86
51468;BME280;37545;45.302;-122.946;2023-08-21T06:03:43;100218.25;;;24.62;26.37
51468;BME280;37545;45.302;-122.946;2023-08-21T06:06:12;100214.97;;;24.55;26.64
51468;BME280;37545;45.302;-122.946;2023-08-21T06:08:40;100218.66;;;24.51;27.11
51468;BME280;37545;45.302;-122.946;2023-08-21T06:11:11;100211.88;;;24.42;26.39
51468;BME280;37545;45.302;-122.946;2023-08-21T06:13:41;100218.25;;;24.37;27.53
51468;BME280;37545;45.302;-122.946;2023-08-21T06:16:09;100216.69;;;24.31;27.31
51468;BME280;37545;45.302;-122.946;2023-08-21T06:18:38;100229.31;;;24.23;27.64
51468;BME280;37545;45.302;-122.946;2023-08-21T06:21:06;100231.47;;;24.12;28.13
51468;BME280;37545;45.302;-122.946;2023-08-21T06:23:36;100231.75;;;24.04;28.05
51468;BME280;37545;45.302;-122.946;2023-08-21T06:26:04;100235.56;;;23.95;28.20
51468;BME280;37545;45.302;-122.946;2023-08-21T06:28:47;100237.84;;;23.79;28.51
51468;BME280;37545;45.302;-122.946;2023-08-21T06:31:15;100245.03;;;23.76;28.89
51468;BME280;37545;45.302;-122.946;2023-08-21T06:33:44;100244.22;;;23.72;28.26
51468;BME280;37545;45.302;-122.946;2023-08-21T06:36:14;100250.47;;;23.70;28.06
51468;BME280;37545;45.302;-122.946;2023-08-21T06:38:43;100246.00;;;23.72;27.05
51468;BME280;37545;45.302;-122.946;2023-08-21T06:41:11;100252.19;;;23.71;27.57
51468;BME280;37545;45.302;-122.946;2023-08-21T06:43:40;100244.34;;;23.69;27.34
51468;BME280;37545;45.302;-122.946;2023-08-21T06:46:13;100243.69;;;23.62;27.66
51468;BME280;37545;45.302;-122.946;2023-08-21T06:48:41;100247.31;;;23.58;27.71
51468;BME280;37545;45.302;-122.946;2023-08-21T06:51:10;100248.19;;;23.59;27.36
51468;BME280;37545;45.302;-122.946;2023-08-21T06:53:39;100259.72;;;23.56;27.40
51468;BME280;37545;45.302;-122.946;2023-08-21T06:56:08;100258.97;;;23.53;27.92
51468;BME280;37545;45.302;-122.946;2023-08-21T06:58:39;100262.66;;;23.47;28.45
51468;BME280;37545;45.302;-122.946;2023-08-21T07:01:07;100264.97;;;23.30;28.64
51468;BME280;37545;45.302;-122.946;2023-08-21T07:03:37;100270.38;;;23.25;29.17
51468;BME280;37545;45.302;-122.946;2023-08-21T07:06:06;100266.31;;;23.13;28.85
51468;BME280;37545;45.302;-122.946;2023-08-21T07:08:34;100257.41;;;23.17;27.99
51468;BME280;37545;45.302;-122.946;2023-08-21T07:11:04;100256.44;;;23.20;28.10
51468;BME280;37545;45.302;-122.946;2023-08-21T07:13:32;100244.31;;;23.14;29.08
51468;BME280;37545;45.302;-122.946;2023-08-21T07:16:01;100248.75;;;23.14;29.34
51468;BME280;37545;45.302;-122.946;2023-08-21T07:18:32;100257.69;;;23.08;28.63
51468;BME280;37545;45.302;-122.946;2023-08-21T07:21:03;100255.16;;;23.05;28.94
51468;BME280;37545;45.302;-122.946;2023-08-21T07:23:31;100257.81;;;23.04;28.92
51468;BME280;37545;45.302;-122.946;2023-08-21T07:26:00;100247.34;;;23.02;28.44
51468;BME280;37545;45.302;-122.946;2023-08-21T07:28:31;100249.16;;;23.00;28.51
51468;BME280;37545;45.302;-122.946;2023-08-21T07:31:07;100254.38;;;23.02;28.42
51468;BME280;37545;45.302;-122.946;2023-08-21T07:33:36;100259.63;;;23.02;28.62
51468;BME280;37545;45.302;-122.946;2023-08-21T07:36:06;100254.44;;;23.00;28.08
51468;BME280;37545;45.302;-122.946;2023-08-21T07:38:35;100250.94;;;22.98;28.83
51468;BME280;37545;45.302;-122.946;2023-08-21T07:41:04;100244.88;;;22.94;28.41
51468;BME280;37545;45.302;-122.946;2023-08-21T07:43:34;100242.38;;;22.90;28.40
51468;BME280;37545;45.302;-122.946;2023-08-21T07:46:03;100243.38;;;22.86;28.97
51468;BME280;37545;45.302;-122.946;2023-08-21T07:48:32;100239.97;;;22.82;28.87
51468;BME280;37545;45.302;-122.946;2023-08-21T07:51:01;100240.00;;;22.80;28.59
51468;BME280;37545;45.302;-122.946;2023-08-21T07:53:31;100228.63;;;22.78;29.47
51468;BME280;37545;45.302;-122.946;2023-08-21T07:56:01;100236.66;;;22.75;28.86
51468;BME280;37545;45.302;-122.946;2023-08-21T07:58:30;100230.66;;;22.70;29.50
51468;BME280;37545;45.302;-122.946;2023-08-21T08:00:59;100228.16;;;22.66;29.12
51468;BME280;37545;45.302;-122.946;2023-08-21T08:03:28;100232.63;;;22.62;28.95
51468;BME280;37545;45.302;-122.946;2023-08-21T08:05:56;100238.06;;;22.56;29.23
51468;BME280;37545;45.302;-122.946;2023-08-21T08:08:25;100237.34;;;22.51;29.64
51468;BME280;37545;45.302;-122.946;2023-08-21T08:10:55;100233.97;;;22.46;29.49
51468;BME280;37545;45.302;-122.946;2023-08-21T08:13:23;100236.78;;;22.40;29.51
51468;BME280;37545;45.302;-122.946;2023-08-21T08:15:54;100240.47;;;22.32;29.63
51468;BME280;37545;45.302;-122.946;2023-08-21T08:18:25;100233.69;;;22.24;29.71
51468;BME280;37545;45.302;-122.946;2023-08-21T08:20:54;100237.31;;;22.18;29.56
51468;BME280;37545;45.302;-122.946;2023-08-21T08:23:22;100235.69;;;22.14;29.32
51468;BME280;37545;45.302;-122.946;2023-08-21T08:25:53;100232.22;;;22.12;30.18
51468;BME280;37545;45.302;-122.946;2023-08-21T08:28:29;100237.63;;;22.06;29.82
51468;BME280;37545;45.302;-122.946;2023-08-21T08:30:58;100220.09;;;22.05;30.30
51468;BME280;37545;45.302;-122.946;2023-08-21T08:33:27;100220.25;;;21.99;30.31
51468;BME280;37545;45.302;-122.946;2023-08-21T08:35:55;100231.72;;;21.98;29.99
51468;BME280;37545;45.302;-122.946;2023-08-21T08:38:26;100229.16;;;21.94;29.89
51468;BME280;37545;45.302;-122.946;2023-08-21T08:40:55;100240.59;;;21.93;30.00
51468;BME280;37545;45.302;-122.946;2023-08-21T08:43:25;100230.09;;;21.92;31.06
51468;BME280;37545;45.302;-122.946;2023-08-21T08:45:58;100235.47;;;21.87;30.34
51468;BME280;37545;45.302;-122.946;2023-08-21T08:48:28;100243.47;;;21.84;30.38
51468;BME280;37545;45.302;-122.946;2023-08-21T08:50:57;100238.28;;;21.81;30.55
51468;BME280;37545;45.302;-122.946;2023-08-21T08:53:26;100248.00;;;21.79;31.19
51468;BME280;37545;45.302;-122.946;2023-08-21T08:55:56;100245.50;;;21.73;31.56
51468;BME280;37545;45.302;-122.946;2023-08-21T08:58:25;100244.75;;;21.68;31.56
51468;BME280;37545;45.302;-122.946;2023-08-21T09:00:53;100242.25;;;21.62;30.89
51468;BME280;37545;45.302;-122.946;2023-08-21T09:03:24;100236.31;;;21.53;31.62
51468;BME280;37545;45.302;-122.946;2023-08-21T09:05:53;100244.50;;;21.41;31.95
51468;BME280;37545;45.302;-122.946;2023-08-21T09:08:21;100241.16;;;21.33;32.53
51468;BME280;37545;45.302;-122.946;2023-08-21T09:10:50;100253.63;;;21.25;31.99
51468;BME280;37545;45.302;-122.946;2023-08-21T09:13:21;100248.47;;;21.20;32.31
51468;BME280;37545;45.302;-122.946;2023-08-21T09:15:54;100245.03;;;21.17;31.92
51468;BME280;37545;45.302;-122.946;2023-08-21T09:18:27;100247.69;;;21.15;32.74
51468;BME280;37545;45.302;-122.946;2023-08-21T09:20:55;100244.25;;;21.11;32.75
51468;BME280;37545;45.302;-122.946;2023-08-21T09:23:24;100249.59;;;21.08;32.43
51468;BME280;37545;45.302;-122.946;2023-08-21T09:25:52;100244.47;;;21.02;32.91
51468;BME280;37545;45.302;-122.946;2023-08-21T09:28:21;100247.16;;;20.99;32.81
51468;BME280;37545;45.302;-122.946;2023-08-21T09:30:51;100251.63;;;20.96;32.78
51468;BME280;37545;45.302;-122.946;2023-08-21T09:33:26;100236.19;;;20.80;34.84
51468;BME280;37545;45.302;-122.946;2023-08-21T09:35:55;100254.59;;;20.80;33.81
51468;BME280;37545;45.302;-122.946;2023-08-21T09:38:28;100247.84;;;20.65;33.72
51468;BME280;37545;45.302;-122.946;2023-08-21T09:40:57;100253.19;;;20.62;34.04
51468;BME280;37545;45.302;-122.946;2023-08-21T09:43:25;100258.69;;;20.48;34.19
51468;BME280;37545;45.302;-122.946;2023-08-21T09:45:55;100253.63;;;20.38;34.55
51468;BME280;37545;45.302;-122.946;2023-08-21T09:48:26;100253.81;;;20.27;34.94
51468;BME280;37545;45.302;-122.946;2023-08-21T09:50:55;100248.72;;;20.19;35.04
51468;BME280;37545;45.302;-122.946;2023-08-21T09:53:24;100257.69;;;20.06;35.45
51468;BME280;37545;45.302;-122.946;2023-08-21T09:55:53;100250.03;;;19.95;35.90
51468;BME280;37545;45.302;-122.946;2023-08-21T09:58:24;100248.41;;;19.86;36.27
51468;BME280;37545;45.302;-122.946;2023-08-21T10:00:57;100247.56;;;19.84;37.14
51468;BME280;37545;45.302;-122.946;2023-08-21T10:03:29;100255.50;;;19.81;36.08
51468;BME280;37545;45.302;-122.946;2023-08-21T10:05:58;100247.66;;;19.78;36.73
51468;BME280;37545;45.302;-122.946;2023-08-21T10:08:27;100259.91;;;19.79;36.08
51468;BME280;37545;45.302;-122.946;2023-08-21T10:11:00;100259.91;;;19.79;37.13
51468;BME280;37545;45.302;-122.946;2023-08-21T10:13:32;100261.69;;;19.77;36.10
51468;BME280;37545;45.302;-122.946;2023-08-21T10:16:02;100265.19;;;19.76;36.74
51468;BME280;37545;45.302;-122.946;2023-08-21T10:18:34;100262.63;;;19.75;36.00
51468;BME280;37545;45.302;-122.946;2023-08-21T10:21:13;100259.09;;;19.76;36.26
51468;BME280;37545;45.302;-122.946;2023-08-21T10:23:42;100266.13;;;19.74;35.63
51468;BME280;37545;45.302;-122.946;2023-08-21T10:26:14;100264.41;;;19.71;36.37
51468;BME280;37545;45.302;-122.946;2023-08-21T10:28:48;100253.91;;;19.70;36.23
51468;BME280;37545;45.302;-122.946;2023-08-21T10:31:31;100262.72;;;19.65;36.05
51468;BME280;37545;45.302;-122.946;2023-08-21T10:34:02;100260.13;;;19.64;36.58
51468;BME280;37545;45.302;-122.946;2023-08-21T10:39:29;100249.72;;;19.58;36.82
51468;BME280;37545;45.302;-122.946;2023-08-21T10:42:00;100247.16;;;19.53;37.19
51468;BME280;37545;45.302;-122.946;2023-08-21T10:47:22;100258.78;;;19.35;37.30
51468;BME280;37545;45.302;-122.946;2023-08-21T10:49:54;100270.19;;;19.33;37.90
51468;BME280;37545;45.302;-122.946;2023-08-21T10:52:29;100262.44;;;19.27;37.70
51468;BME280;37545;45.302;-122.946;2023-08-21T10:55:00;100251.09;;;19.24;37.63
51468;BME280;37545;45.302;-122.946;2023-08-21T10:57:31;100249.41;;;19.19;38.84
51468;BME280;37545;45.302;-122.946;2023-08-21T11:00:00;100252.13;;;19.13;38.68
51468;BME280;37545;45.302;-122.946;2023-08-21T11:02:33;100255.69;;;19.05;38.72
51468;BME280;37545;45.302;-122.946;2023-08-21T11:05:04;100268.06;;;18.97;38.93
51468;BME280;37545;45.302;-122.946;2023-08-21T11:07:47;100266.44;;;18.87;39.37
51468;BME280;37545;45.302;-122.946;2023-08-21T11:10:17;100264.75;;;18.83;39.92
51468;BME280;37545;45.302;-122.946;2023-08-21T11:12:50;100253.41;;;18.81;40.20
51468;BME280;37545;45.302;-122.946;2023-08-21T11:15:19;100258.69;;;18.75;40.02
51468;BME280;37545;45.302;-122.946;2023-08-21T11:17:57;100257.94;;;18.65;40.66
51468;BME280;37545;45.302;-122.946;2023-08-21T11:20:32;100270.25;;;18.58;39.51
51468;BME280;37545;45.302;-122.946;2023-08-21T11:23:02;100267.63;;;18.55;40.91
51468;BME280;37545;45.302;-122.946;2023-08-21T11:25:33;100258.09;;;18.48;41.00
51468;BME280;37545;45.302;-122.946;2023-08-21T11:28:01;100267.72;;;18.48;41.73
51468;BME280;37545;45.302;-122.946;2023-08-21T11:30:31;100277.41;;;18.42;42.53
51468;BME280;37545;45.302;-122.946;2023-08-21T11:33:10;100274.81;;;18.36;43.08
51468;BME280;37545;45.302;-122.946;2023-08-21T11:35:41;100281.00;;;18.31;42.84
51468;BME280;37545;45.302;-122.946;2023-08-21T11:38:16;100266.19;;;18.27;43.33
51468;BME280;37545;45.302;-122.946;2023-08-21T11:40:52;100270.56;;;18.26;42.71
51468;BME280;37545;45.302;-122.946;2023-08-21T11:43:21;100272.38;;;18.19;43.89
51468;BME280;37545;45.302;-122.946;2023-08-21T11:45:50;100275.94;;;18.12;43.20
51468;BME280;37545;45.302;-122.946;2023-08-21T11:48:20;100273.38;;;18.06;43.52
51468;BME280;37545;45.302;-122.946;2023-08-21T11:50:58;100270.78;;;18.03;43.32
51468;BME280;37545;45.302;-122.946;2023-08-21T11:53:34;100262.97;;;17.97;43.65
51468;BME280;37545;45.302;-122.946;2023-08-21T11:56:08;100271.72;;;17.96;43.59
51468;BME280;37545;45.302;-122.946;2023-08-21T11:58:38;100262.16;;;17.92;43.81
51468;BME280;37545;45.302;-122.946;2023-08-21T12:01:07;100262.16;;;17.89;43.40
51468;BME280;37545;45.302;-122.946;2023-08-21T12:03:36;100255.25;;;17.85;43.54
51468;BME280;37545;45.302;-122.946;2023-08-21T12:06:08;100243.91;;;17.83;42.29
51468;BME280;37545;45.302;-122.946;2023-08-21T12:08:39;100247.41;;;17.83;44.05
51468;BME280;37545;45.302;-122.946;2023-08-21T12:11:08;100243.03;;;17.80;42.67
51468;BME280;37545;45.302;-122.946;2023-08-21T12:13:37;100252.63;;;17.80;43.48
51468;BME280;37545;45.302;-122.946;2023-08-21T12:16:06;100275.34;;;17.75;44.92
51468;BME280;37545;45.302;-122.946;2023-08-21T12:18:34;100277.13;;;17.70;43.70
51468;BME280;37545;45.302;-122.946;2023-08-21T12:21:03;100286.72;;;17.69;43.46
51468;BME280;37545;45.302;-122.946;2023-08-21T12:23:35;100290.25;;;17.65;43.42
51468;BME280;37545;45.302;-122.946;2023-08-21T12:26:03;100285.03;;;17.59;43.69
51468;BME280;37545;45.302;-122.946;2023-08-21T12:28:32;100285.06;;;17.57;43.83
51468;BME280;37545;45.302;-122.946;2023-08-21T12:31:00;100285.03;;;17.59;46.03
51468;BME280;37545;45.302;-122.946;2023-08-21T12:33:29;100285.03;;;17.59;44.51
51468;BME280;37545;45.302;-122.946;2023-08-21T12:35:57;100288.56;;;17.55;44.52
51468;BME280;37545;45.302;-122.946;2023-08-21T12:38:26;100287.72;;;17.53;44.70
51468;BME280;37545;45.302;-122.946;2023-08-21T12:40:57;100287.72;;;17.53;44.64